Time;durP1;ratioP1;P1;durP2;ratioP2;P2;SDS_P1;SDS_P2;PMS_P1;PMS_P2;Temp;Humidity;BMP_temperature;BMP_pressure;BME280_temperature;BME280_humidity;BME280_pressure;Samples;Min_cycle;Max_cycle;Signal;HPM_P1;HPM_P2
2023/07/21 00:00:18;;;;;;;1.67;0.50;;;15.40;99.90;;;;;;4971007;28;20769;-79
2023/07/21 00:02:48;;;;;;;1.27;0.60;;;15.40;99.90;;;;;;4952677;28;20050;-90
2023/07/21 00:05:15;;;;;;;2.05;0.55;;;15.40;99.90;;;;;;4956332;28;20045;-86
2023/07/21 00:07:41;;;;;;;1.00;0.52;;;15.30;99.90;;;;;;4949561;28;20043;-91
2023/07/21 00:10:08;;;;;;;1.98;0.60;;;15.30;99.90;;;;;;4967758;28;20039;-88
2023/07/21 00:12:40;;;;;;;1.98;0.60;;;15.20;99.90;;;;;;4964093;28;20049;-90
2023/07/21 00:15:06;;;;;;;1.10;0.60;;;15.20;99.90;;;;;;4966108;28;20131;-90
2023/07/21 00:17:34;;;;;;;1.00;0.60;;;15.20;99.90;;;;;;4971275;28;20042;-89
2023/07/21 00:20:11;;;;;;;1.00;0.60;;;15.10;99.90;;;;;;4967717;28;20035;-89
2023/07/21 00:22:40;;;;;;;1.50;0.60;;;15.00;99.90;;;;;;4951649;28;20043;-90
2023/07/21 00:25:10;;;;;;;1.47;0.70;;;14.90;99.90;;;;;;4967814;28;20106;-89
2023/07/21 00:27:38;;;;;;;1.50;0.60;;;14.90;99.90;;;;;;4952308;28;20538;-90
2023/07/21 00:30:08;;;;;;;1.30;0.60;;;14.80;99.90;;;;;;4967933;28;20487;-90
2023/07/21 00:32:37;;;;;;;1.25;0.65;;;14.80;99.90;;;;;;4956128;28;20042;-89
2023/07/21 00:35:05;;;;;;;;;;;14.70;99.90;;;;;;4963195;28;20051;-87
2023/07/21 00:37:31;;;;;;;1.00;0.50;;;14.60;99.90;;;;;;4965218;28;19910;-90
2023/07/21 00:39:57;;;;;;;1.38;0.60;;;14.60;99.90;;;;;;4955230;28;20570;-89
2023/07/21 00:42:22;;;;;;;1.75;0.80;;;14.60;99.90;;;;;;4969199;28;20571;-85
2023/07/21 00:44:48;;;;;;;0.95;0.60;;;14.60;99.90;;;;;;4969727;28;20063;-88
2023/07/21 00:47:14;;;;;;;1.20;0.60;;;14.60;99.90;;;;;;4971020;28;20050;-85
2023/07/21 00:49:42;;;;;;;2.08;0.63;;;14.50;99.90;;;;;;4949080;28;20031;-84
2023/07/21 00:52:13;;;;;;;1.90;0.70;;;14.50;99.90;;;;;;4976096;28;20573;-89
2023/07/21 00:54:39;;;;;;;1.10;0.60;;;14.50;99.90;;;;;;4970868;28;20369;-88
2023/07/21 00:57:06;;;;;;;1.60;0.80;;;14.50;99.90;;;;;;4955118;28;20066;-89
2023/07/21 00:59:32;;;;;;;2.95;0.70;;;14.50;99.90;;;;;;4954433;28;20046;-90
2023/07/21 01:01:58;;;;;;;1.73;0.70;;;14.40;99.90;;;;;;4971213;28;20038;-88
2023/07/21 01:04:24;;;;;;;2.28;0.60;;;14.40;99.90;;;;;;4962967;28;20046;-91
2023/07/21 01:06:52;;;;;;;1.75;0.80;;;14.40;99.90;;;;;;4963047;28;20058;-84
2023/07/21 01:09:19;;;;;;;1.83;0.70;;;14.40;99.90;;;;;;4961206;28;20054;-84
2023/07/21 01:11:46;;;;;;;1.70;0.85;;;14.40;99.90;;;;;;4970537;28;20537;-90
2023/07/21 01:14:12;;;;;;;1.60;0.80;;;14.40;99.90;;;;;;4953252;28;20093;-90
2023/07/21 01:16:43;;;;;;;1.38;0.85;;;14.40;99.90;;;;;;4964180;28;20042;-90
2023/07/21 01:19:14;;;;;;;1.30;0.70;;;14.40;99.90;;;;;;4970868;28;20491;-85
2023/07/21 01:21:46;;;;;;;2.47;0.70;;;14.40;99.90;;;;;;4950798;28;20026;-91
2023/07/21 01:24:37;;;;;;;1.20;0.60;;;14.40;99.90;;;;;;4966248;28;20053;-91
2023/07/21 01:27:05;;;;;;;1.00;0.60;;;14.30;99.90;;;;;;4964412;28;20377;-83
2023/07/21 01:29:34;;;;;;;1.73;0.60;;;14.30;99.90;;;;;;4951229;28;20054;-89
2023/07/21 01:32:04;;;;;;;1.75;0.70;;;14.30;99.90;;;;;;4952633;28;20123;-90
2023/07/21 01:34:32;;;;;;;1.10;0.60;;;14.40;99.90;;;;;;4967232;28;20031;-85
2023/07/21 01:36:59;;;;;;;1.45;0.60;;;14.40;99.90;;;;;;4969853;28;20054;-90
2023/07/21 01:39:26;;;;;;;1.80;0.70;;;14.50;99.90;;;;;;4953189;28;20126;-90
2023/07/21 01:41:52;;;;;;;2.22;0.60;;;14.40;99.90;;;;;;4980846;28;20055;-91
2023/07/21 01:44:21;;;;;;;1.65;0.50;;;14.30;99.90;;;;;;4971177;28;20466;-86
2023/07/21 01:46:48;;;;;;;1.10;0.60;;;14.30;99.90;;;;;;4978657;28;20035;-90
2023/07/21 01:49:15;;;;;;;1.23;0.60;;;14.30;99.90;;;;;;4967137;28;20038;-90
2023/07/21 01:51:43;;;;;;;1.15;0.60;;;14.30;99.90;;;;;;4948774;28;20476;-88
2023/07/21 01:54:18;;;;;;;1.40;0.70;;;14.20;99.90;;;;;;4969997;28;20571;-83
2023/07/21 01:56:52;;;;;;;1.33;0.57;;;14.30;99.90;;;;;;4967958;28;20121;-89
2023/07/21 01:59:21;;;;;;;1.30;0.60;;;14.20;99.90;;;;;;4962479;28;20406;-85
2023/07/21 02:01:48;;;;;;;1.00;0.60;;;14.20;99.90;;;;;;4967138;28;20073;-91
2023/07/21 02:04:14;;;;;;;1.38;0.55;;;14.20;99.90;;;;;;4969875;28;20357;-88
2023/07/21 02:06:40;;;;;;;2.42;0.60;;;14.20;99.90;;;;;;4948267;28;20372;-89
2023/07/21 02:09:06;;;;;;;1.25;0.60;;;14.20;99.90;;;;;;4967079;28;20048;-90
2023/07/21 02:11:33;;;;;;;1.50;0.70;;;14.10;99.90;;;;;;4951400;28;20046;-90
2023/07/21 02:14:19;;;;;;;1.25;0.70;;;14.00;99.90;;;;;;4966676;28;20065;-87
2023/07/21 02:16:46;;;;;;;1.48;0.70;;;13.90;99.90;;;;;;4953562;28;20036;-90
2023/07/21 02:19:12;;;;;;;1.10;0.60;;;14.00;99.90;;;;;;4952754;28;20035;-89
2023/07/21 02:21:38;;;;;;;1.20;0.60;;;13.90;99.90;;;;;;4953414;28;20498;-87
2023/07/21 02:24:04;;;;;;;1.10;0.60;;;13.90;99.90;;;;;;4949563;28;20078;-90
2023/07/21 02:26:30;;;;;;;2.65;0.60;;;13.90;99.90;;;;;;4966808;28;20058;-86
2023/07/21 02:28:56;;;;;;;1.20;0.70;;;13.80;99.90;;;;;;4976569;28;20031;-89
2023/07/21 02:31:22;;;;;;;1.27;0.70;;;13.80;99.90;;;;;;4946375;28;20396;-83
2023/07/21 02:33:48;;;;;;;1.27;0.70;;;13.70;99.90;;;;;;4952250;28;20046;-89
2023/07/21 02:36:14;;;;;;;1.40;0.60;;;13.60;99.90;;;;;;4979602;28;20042;-81
2023/07/21 02:38:40;;;;;;;1.90;0.70;;;13.60;99.90;;;;;;4961971;28;20039;-90
2023/07/21 02:41:08;;;;;;;1.50;0.80;;;13.60;99.90;;;;;;4954102;28;20074;-86
2023/07/21 02:43:34;;;;;;;1.13;0.60;;;13.50;99.90;;;;;;4950631;28;20058;-86
2023/07/21 02:46:00;;;;;;;1.55;0.73;;;13.50;99.90;;;;;;4952866;28;20480;-89
2023/07/21 02:48:25;;;;;;;1.17;0.60;;;13.60;99.90;;;;;;4951687;28;20095;-86
2023/07/21 02:50:53;;;;;;;1.60;0.90;;;13.50;99.90;;;;;;4950500;28;20034;-86
2023/07/21 02:53:20;;;;;;;1.33;0.70;;;13.50;99.90;;;;;;4953202;28;20082;-88
2023/07/21 02:55:51;;;;;;;1.83;0.70;;;13.40;99.90;;;;;;4952157;28;20377;-88
2023/07/21 02:58:17;;;;;;;1.50;0.80;;;13.40;99.90;;;;;;4975745;28;20137;-83
2023/07/21 03:00:43;;;;;;;1.40;0.70;;;13.40;99.90;;;;;;4962856;28;20034;-90
2023/07/21 03:03:20;;;;;;;1.58;1.00;;;13.40;99.90;;;;;;4952427;28;20051;-89
2023/07/21 03:05:50;;;;;;;;;;;13.30;99.90;;;;;;4952260;28;20027;-90
2023/07/21 03:08:19;;;;;;;1.10;0.60;;;13.30;99.90;;;;;;4947253;28;19910;-85
2023/07/21 03:10:46;;;;;;;1.55;0.90;;;13.20;99.90;;;;;;4968216;28;20035;-90
2023/07/21 03:13:17;;;;;;;1.38;0.70;;;13.20;99.90;;;;;;4964698;28;20057;-88
2023/07/21 03:15:43;;;;;;;1.20;0.60;;;13.20;99.90;;;;;;4969606;28;20555;-88
2023/07/21 03:18:11;;;;;;;1.50;0.70;;;13.10;99.90;;;;;;4952838;28;20039;-89
2023/07/21 03:20:59;;;;;;;1.60;0.90;;;13.10;99.90;;;;;;4954643;28;20031;-90
2023/07/21 03:23:25;;;;;;;2.88;0.80;;;13.10;99.90;;;;;;4974710;28;20047;-89
2023/07/21 03:25:51;;;;;;;2.35;0.80;;;13.10;99.90;;;;;;4950464;28;20061;-81
2023/07/21 03:28:18;;;;;;;1.60;0.75;;;13.10;99.90;;;;;;4951568;28;20138;-83
2023/07/21 03:30:45;;;;;;;1.88;0.90;;;13.10;99.90;;;;;;4950931;28;20118;-88
2023/07/21 03:33:20;;;;;;;1.63;0.70;;;13.10;99.90;;;;;;4962669;28;20102;-89
2023/07/21 03:36:02;;;;;;;1.33;0.70;;;13.10;99.90;;;;;;4968833;28;20035;-89
2023/07/21 03:38:30;;;;;;;1.90;0.80;;;13.10;99.90;;;;;;4967253;28;20121;-87
2023/07/21 03:41:14;;;;;;;1.80;0.93;;;13.10;99.90;;;;;;4969002;28;20026;-90
2023/07/21 03:43:41;;;;;;;1.50;0.80;;;13.10;99.90;;;;;;4951781;28;20071;-89
2023/07/21 03:46:08;;;;;;;2.10;1.02;;;13.10;99.90;;;;;;4952123;28;20129;-89
2023/07/21 03:49:00;;;;;;;2.28;1.50;;;13.20;99.90;;;;;;4961694;28;20481;-89
2023/07/21 03:51:26;;;;;;;2.08;1.50;;;13.10;99.90;;;;;;4963848;28;20034;-87
2023/07/21 03:53:52;;;;;;;3.40;1.58;;;13.00;99.90;;;;;;4969391;28;20038;-89
2023/07/21 03:56:22;;;;;;;1.98;1.33;;;13.00;99.90;;;;;;4965321;28;20514;-89
2023/07/21 03:58:48;;;;;;;2.22;1.70;;;13.00;99.90;;;;;;4967445;28;20038;-86
2023/07/21 04:01:15;;;;;;;2.13;1.30;;;13.00;99.90;;;;;;4953503;28;20035;-85
2023/07/21 04:03:41;;;;;;;3.05;1.73;;;13.00;99.90;;;;;;4954004;28;20048;-87
2023/07/21 04:06:07;;;;;;;2.30;1.67;;;12.90;99.90;;;;;;4968107;28;20655;-84
2023/07/21 04:08:34;;;;;;;2.63;1.92;;;12.90;99.90;;;;;;4967456;28;20039;-86
2023/07/21 04:10:59;;;;;;;2.28;1.35;;;12.90;99.90;;;;;;4966721;28;20111;-89
2023/07/21 04:13:26;;;;;;;2.70;1.50;;;12.90;99.90;;;;;;4971936;28;20047;-90
2023/07/21 04:15:52;;;;;;;2.70;1.83;;;13.00;99.90;;;;;;4977638;28;20034;-88
2023/07/21 04:18:18;;;;;;;2.58;1.77;;;13.00;99.90;;;;;;4947665;28;20043;-87
2023/07/21 04:20:44;;;;;;;2.10;1.63;;;13.00;99.90;;;;;;4966904;28;20053;-89
2023/07/21 04:23:10;;;;;;;2.70;1.70;;;13.00;99.90;;;;;;4951924;28;20054;-89
2023/07/21 04:25:36;;;;;;;3.08;1.55;;;12.90;99.90;;;;;;4974349;28;20031;-89
2023/07/21 04:28:05;;;;;;;3.38;1.83;;;13.00;99.90;;;;;;4953118;28;20032;-90
2023/07/21 04:30:33;;;;;;;2.42;1.60;;;13.10;99.90;;;;;;4946847;28;20130;-89
2023/07/21 04:32:59;;;;;;;2.58;1.83;;;13.20;99.90;;;;;;4951650;28;20653;-82
2023/07/21 04:35:25;;;;;;;2.70;1.88;;;13.20;99.90;;;;;;4949182;28;20415;-90
2023/07/21 04:37:51;;;;;;;3.35;2.25;;;13.20;99.90;;;;;;4945886;28;20031;-85
2023/07/21 04:40:20;;;;;;;3.88;2.30;;;13.30;99.90;;;;;;4965840;28;20031;-83
2023/07/21 04:42:47;;;;;;;5.85;2.95;;;13.40;99.90;;;;;;4950272;28;20046;-88
2023/07/21 04:45:13;;;;;;;3.85;3.00;;;13.40;99.90;;;;;;4965764;28;20027;-85
2023/07/21 04:47:49;;;;;;;5.15;3.28;;;13.50;99.90;;;;;;4955785;28;20039;-90
2023/07/21 04:50:19;;;;;;;3.90;2.95;;;13.60;99.90;;;;;;4956063;28;20031;-86
2023/07/21 04:52:46;;;;;;;5.03;3.78;;;13.70;99.90;;;;;;4955512;28;20542;-89
2023/07/21 04:55:12;;;;;;;4.72;3.35;;;13.80;99.90;;;;;;4963156;28;20030;-84
2023/07/21 04:57:37;;;;;;;4.65;2.78;;;13.90;99.90;;;;;;4954533;28;20043;-84
2023/07/21 05:00:09;;;;;;;3.75;2.97;;;14.10;99.90;;;;;;4950358;28;20490;-86
2023/07/21 05:02:34;;;;;;;3.28;2.80;;;14.30;99.90;;;;;;4950372;28;20054;-89
2023/07/21 05:05:01;;;;;;;4.15;3.08;;;14.50;99.90;;;;;;4956113;28;20032;-89
2023/07/21 05:07:29;;;;;;;5.38;2.90;;;14.70;99.90;;;;;;4954974;28;20492;-86
2023/07/21 05:09:59;;;;;;;3.97;2.00;;;14.90;99.90;;;;;;4968947;28;20078;-89
2023/07/21 05:12:25;;;;;;;3.50;2.55;;;15.10;99.90;;;;;;4950768;28;20046;-88
2023/07/21 05:15:02;;;;;;;3.95;2.50;;;15.30;99.90;;;;;;4954603;28;20054;-89
2023/07/21 05:17:49;;;;;;;2.75;1.85;;;15.40;99.90;;;;;;4956393;28;20399;-88
2023/07/21 05:20:28;;;;;;;4.78;1.88;;;15.30;99.90;;;;;;4954402;28;20035;-85
2023/07/21 05:23:16;;;;;;;3.72;1.48;;;15.30;99.90;;;;;;4954561;28;20130;-86
2023/07/21 05:26:00;;;;;;;3.10;2.25;;;15.40;99.90;;;;;;4975966;28;20034;-85
2023/07/21 05:28:29;;;;;;;3.00;1.67;;;15.40;99.90;;;;;;4949636;28;20054;-86
2023/07/21 05:30:56;;;;;;;3.17;1.65;;;15.40;99.90;;;;;;4951470;28;20027;-87
2023/07/21 05:33:25;;;;;;;3.97;1.92;;;15.40;99.90;;;;;;4953526;28;20486;-86
2023/07/21 05:35:51;;;;;;;4.53;2.33;;;15.50;99.90;;;;;;4952705;28;20027;-84
2023/07/21 05:38:26;;;;;;;3.70;2.08;;;15.60;99.90;;;;;;4952603;28;20525;-86
2023/07/21 05:40:58;;;;;;;4.70;2.72;;;15.60;99.90;;;;;;4953598;28;20031;-88
2023/07/21 05:43:26;;;;;;;3.90;2.33;;;15.50;99.90;;;;;;4949889;28;20047;-82
2023/07/21 05:45:52;;;;;;;2.80;1.65;;;15.50;99.90;;;;;;4949519;28;20038;-86
2023/07/21 05:48:18;;;;;;;4.07;1.98;;;15.50;99.90;;;;;;4954023;28;20543;-87
2023/07/21 05:50:46;;;;;;;3.75;2.78;;;15.30;99.90;;;;;;4950981;28;20038;-86
2023/07/21 05:53:12;;;;;;;4.55;2.90;;;15.30;99.90;;;;;;4951608;28;20407;-82
2023/07/21 05:55:44;;;;;;;4.70;2.15;;;15.30;99.90;;;;;;4957121;28;20035;-82
2023/07/21 05:58:18;;;;;;;3.55;1.70;;;15.40;99.90;;;;;;4954102;28;20495;-87
2023/07/21 06:00:45;;;;;;;4.13;2.63;;;15.40;99.90;;;;;;4950384;28;20031;-87
2023/07/21 06:03:11;;;;;;;2.90;1.40;;;15.40;99.90;;;;;;4952040;28;20077;-86
2023/07/21 06:05:37;;;;;;;2.80;2.45;;;15.70;99.90;;;;;;4974757;28;20071;-86
2023/07/21 06:08:32;;;;;;;5.13;3.45;;;15.90;99.90;;;;;;4949430;28;20039;-86
2023/07/21 06:11:23;;;;;;;2.47;1.17;;;16.10;99.90;;;;;;4955840;28;20035;-86
2023/07/21 06:14:09;;;;;;;2.63;1.75;;;16.60;99.90;;;;;;4988061;28;20089;-82
2023/07/21 06:16:54;;;;;;;2.35;1.30;;;16.60;99.90;;;;;;4992394;28;20581;-86
2023/07/21 06:19:21;;;;;;;2.10;1.15;;;16.70;99.90;;;;;;4974196;28;20035;-87
2023/07/21 06:21:47;;;;;;;3.05;1.50;;;16.70;99.90;;;;;;4975865;28;20105;-86
2023/07/21 06:24:13;;;;;;;2.80;1.00;;;16.50;99.90;;;;;;4956163;28;20136;-85
2023/07/21 06:26:39;;;;;;;2.25;1.25;;;16.70;99.90;;;;;;4954478;28;20430;-84
2023/07/21 06:29:07;;;;;;;2.50;1.02;;;17.00;99.90;;;;;;4971685;28;20056;-86
2023/07/21 06:31:33;;;;;;;3.15;1.58;;;17.20;99.90;;;;;;4955620;28;20113;-84
2023/07/21 06:34:30;;;;;;;9.13;7.55;;;17.00;99.90;;;;;;4966448;28;20035;-85
2023/07/21 06:37:24;;;;;;;13.45;12.05;;;17.10;99.90;;;;;;4958041;28;20042;-84
2023/07/21 06:40:09;;;;;;;12.27;10.88;;;17.10;99.90;;;;;;4969221;28;20037;-82
2023/07/21 06:43:07;;;;;;;12.80;11.15;;;17.30;99.90;;;;;;4955560;28;20059;-88
2023/07/21 06:45:56;;;;;;;20.63;15.35;;;17.60;99.90;;;;;;4937820;28;20484;-86
2023/07/21 06:48:41;;;;;;;19.13;16.52;;;17.50;99.90;;;;;;4944214;28;20424;-84
2023/07/21 06:51:11;;;;;;;14.27;12.88;;;17.60;99.90;;;;;;4936784;28;20454;-89
2023/07/21 06:53:37;;;;;;;9.63;8.27;;;17.70;99.90;;;;;;4954662;28;20138;-86
2023/07/21 06:56:04;;;;;;;9.00;8.10;;;17.70;99.90;;;;;;4916445;28;20050;-86
2023/07/21 06:58:30;;;;;;;10.75;9.25;;;18.20;99.90;;;;;;4930391;28;20590;-86
2023/07/21 07:00:57;;;;;;;8.30;7.38;;;18.20;99.90;;;;;;4930405;28;20038;-87
2023/07/21 07:03:23;;;;;;;8.27;7.47;;;18.40;99.90;;;;;;4915636;28;20079;-81
2023/07/21 07:05:49;;;;;;;12.88;9.30;;;18.30;99.90;;;;;;4943875;28;20078;-88
2023/07/21 07:08:15;;;;;;;8.43;7.18;;;18.30;99.90;;;;;;4937544;28;20039;-86
2023/07/21 07:10:46;;;;;;;8.10;7.30;;;18.30;99.90;;;;;;4940094;28;20488;-86
2023/07/21 07:13:11;;;;;;;7.22;5.43;;;18.50;99.90;;;;;;4912042;28;20058;-86
2023/07/21 07:15:37;;;;;;;4.72;4.25;;;18.80;99.90;;;;;;4956547;28;20047;-85
2023/07/21 07:18:04;;;;;;;4.97;4.35;;;19.30;99.90;;;;;;4964184;28;20184;-87
2023/07/21 07:20:30;;;;;;;5.82;4.28;;;19.70;99.90;;;;;;4950578;28;20045;-89
2023/07/21 07:22:56;;;;;;;6.18;4.22;;;20.00;99.90;;;;;;4953902;28;20142;-85
2023/07/21 07:25:24;;;;;;;6.28;4.90;;;19.90;99.90;;;;;;4955143;28;20542;-89
2023/07/21 07:27:51;;;;;;;6.70;4.05;;;19.40;99.90;;;;;;4947923;28;20479;-89
2023/07/21 07:30:20;;;;;;;5.85;5.25;;;19.40;99.90;;;;;;4971781;28;20034;-89
2023/07/21 07:32:46;;;;;;;6.25;5.00;;;19.40;99.90;;;;;;4971681;28;20035;-88
2023/07/21 07:35:11;;;;;;;6.78;4.45;;;19.60;99.90;;;;;;4981403;28;20386;-87
2023/07/21 07:37:37;;;;;;;6.75;5.13;;;19.60;99.90;;;;;;4945650;28;20482;-87
2023/07/21 07:40:05;;;;;;;5.13;4.63;;;19.80;99.90;;;;;;4952385;28;20546;-89
2023/07/21 07:42:32;;;;;;;4.38;3.22;;;19.90;99.90;;;;;;4977359;28;20039;-88
2023/07/21 07:44:59;;;;;;;6.13;3.65;;;19.80;99.90;;;;;;4963787;28;20053;-88
2023/07/21 07:47:25;;;;;;;5.10;2.40;;;19.80;99.90;;;;;;4953628;28;20030;-88
2023/07/21 07:49:51;;;;;;;4.80;3.20;;;19.90;99.90;;;;;;4968125;28;20041;-87
2023/07/21 07:52:18;;;;;;;4.80;3.22;;;19.80;99.90;;;;;;4968945;28;20458;-86
2023/07/21 07:54:44;;;;;;;5.10;3.63;;;19.80;99.90;;;;;;4963632;28;20125;-84
2023/07/21 07:57:11;;;;;;;4.35;2.47;;;19.80;99.90;;;;;;4983023;28;20038;-83
2023/07/21 07:59:37;;;;;;;5.07;2.10;;;20.20;99.90;;;;;;4950762;28;20505;-85
2023/07/21 08:02:03;;;;;;;4.32;2.45;;;20.30;99.90;;;;;;4981458;28;20050;-84
2023/07/21 08:04:29;;;;;;;5.30;2.30;;;20.10;99.90;;;;;;4950966;28;20046;-85
2023/07/21 08:06:54;;;;;;;5.97;3.22;;;20.30;99.90;;;;;;4962414;28;20035;-84
2023/07/21 08:09:22;;;;;;;4.05;2.55;;;20.00;99.90;;;;;;4981424;28;20037;-84
2023/07/21 08:11:47;;;;;;;3.35;1.88;;;20.50;99.90;;;;;;4970910;28;20054;-83
2023/07/21 08:14:13;;;;;;;4.72;2.05;;;20.70;99.90;;;;;;4949140;28;20035;-81
2023/07/21 08:16:39;;;;;;;3.88;2.55;;;20.00;99.90;;;;;;4957721;28;20038;-88
2023/07/21 08:19:04;;;;;;;2.40;1.10;;;19.80;99.90;;;;;;4959584;28;20475;-85
2023/07/21 08:21:31;;;;;;;1.42;0.60;;;20.40;99.90;;;;;;4973976;28;20417;-83
2023/07/21 08:23:57;;;;;;;2.30;0.50;;;21.20;99.90;;;;;;4975847;28;20058;-85
2023/07/21 08:26:23;;;;;;;2.90;1.67;;;21.50;99.90;;;;;;4977485;28;20041;-85
2023/07/21 08:28:52;;;;;;;2.22;0.80;;;20.90;99.90;;;;;;4950754;28;20463;-86
2023/07/21 08:31:19;;;;;;;1.30;0.37;;;21.20;99.90;;;;;;4954022;28;20283;-84
2023/07/21 08:33:44;;;;;;;2.30;0.90;;;22.30;99.90;;;;;;4953857;28;20105;-84
2023/07/21 08:36:10;;;;;;;3.30;0.60;;;21.10;99.90;;;;;;4980700;28;20030;-85
2023/07/21 08:38:36;;;;;;;1.98;1.13;;;21.00;99.90;;;;;;4970451;28;20038;-87
2023/07/21 08:41:09;;;;;;;3.03;1.10;;;20.50;99.90;;;;;;4969694;28;20035;-86
2023/07/21 08:43:35;;;;;;;2.72;1.15;;;20.40;99.90;;;;;;4951554;28;20132;-86
2023/07/21 08:46:05;;;;;;;3.63;0.63;;;20.40;99.90;;;;;;4970225;28;20426;-86
2023/07/21 08:48:32;;;;;;;1.77;0.70;;;21.00;99.90;;;;;;4978039;28;20035;-84
2023/07/21 08:50:58;;;;;;;2.50;0.70;;;20.80;99.90;;;;;;4946416;28;20061;-85
2023/07/21 08:53:25;;;;;;;2.10;0.70;;;20.50;99.90;;;;;;4944851;28;20356;-84
2023/07/21 08:55:58;;;;;;;2.38;0.77;;;20.50;99.90;;;;;;4946826;28;20042;-84
2023/07/21 08:58:25;;;;;;;2.22;0.80;;;20.30;99.90;;;;;;4980168;28;20035;-85
2023/07/21 09:00:52;;;;;;;3.55;0.90;;;20.30;99.90;;;;;;4974048;28;20043;-86
2023/07/21 09:03:22;;;;;;;4.82;0.70;;;20.30;99.90;;;;;;4964857;28;20434;-85
2023/07/21 09:05:48;;;;;;;;;;;21.00;99.90;;;;;;4968426;28;20038;-85
2023/07/21 09:08:27;;;;;;;3.53;2.40;;;21.00;99.90;;;;;;4946494;28;20354;-86
2023/07/21 09:10:59;;;;;;;3.08;0.80;;;20.50;99.90;;;;;;4947208;28;20062;-83
2023/07/21 09:13:26;;;;;;;1.98;0.80;;;20.90;99.90;;;;;;4960895;28;20100;-85
2023/07/21 09:15:57;;;;;;;2.42;0.90;;;21.00;99.90;;;;;;4953972;28;20130;-86
2023/07/21 09:18:42;;;;;;;2.42;0.93;;;21.00;99.90;;;;;;4977702;28;20031;-87
2023/07/21 09:21:20;;;;;;;3.20;0.65;;;20.80;99.90;;;;;;4980033;28;20038;-87
2023/07/21 09:23:47;;;;;;;1.95;0.60;;;20.90;99.90;;;;;;4953031;28;20216;-85
2023/07/21 09:26:21;;;;;;;3.35;1.65;;;20.60;99.90;;;;;;4962842;28;20030;-85
2023/07/21 09:28:46;;;;;;;2.42;1.10;;;20.10;99.90;;;;;;4979050;28;20034;-85
2023/07/21 09:31:13;;;;;;;2.33;0.73;;;19.90;99.90;;;;;;4954743;28;20031;-87
2023/07/21 09:33:45;;;;;;;1.52;0.50;;;20.50;99.90;;;;;;4962877;28;20120;-85
2023/07/21 09:36:15;;;;;;;1.77;0.50;;;20.80;99.90;;;;;;4969809;28;20479;-87
2023/07/21 09:38:42;;;;;;;1.60;0.60;;;20.80;99.90;;;;;;4950164;28;20030;-87
2023/07/21 09:41:13;;;;;;;2.25;0.63;;;20.60;99.90;;;;;;4947955;28;20040;-87
2023/07/21 09:43:39;;;;;;;1.40;0.40;;;20.60;99.90;;;;;;4953887;28;20052;-86
2023/07/21 09:46:07;;;;;;;2.75;0.70;;;21.60;99.90;;;;;;4961293;28;20038;-87
2023/07/21 09:48:35;;;;;;;1.35;0.50;;;21.50;99.90;;;;;;4953443;28;20031;-83
2023/07/21 09:51:03;;;;;;;1.05;0.40;;;21.00;99.90;;;;;;4979312;28;20086;-87
2023/07/21 09:53:40;;;;;;;2.17;0.40;;;21.50;99.90;;;;;;4961561;28;20081;-85
2023/07/21 09:56:08;;;;;;;1.75;0.70;;;22.60;99.90;;;;;;4966199;28;20125;-84
2023/07/21 09:58:38;;;;;;;1.75;0.50;;;20.90;99.90;;;;;;4952145;28;20121;-86
2023/07/21 10:01:05;;;;;;;1.50;0.30;;;20.40;99.90;;;;;;4977695;28;20031;-87
2023/07/21 10:03:32;;;;;;;0.50;0.20;;;21.20;99.90;;;;;;4968985;28;20101;-87
2023/07/21 10:06:00;;;;;;;0.68;0.30;;;22.80;99.90;;;;;;4969066;28;20488;-83
2023/07/21 10:08:31;;;;;;;1.27;0.30;;;23.90;99.90;;;;;;4954862;28;20093;-85
2023/07/21 10:10:58;;;;;;;0.68;0.20;;;23.30;99.90;;;;;;4949030;28;20330;-84
2023/07/21 10:13:26;;;;;;;1.17;0.30;;;23.80;99.90;;;;;;4968307;28;20073;-86
2023/07/21 10:15:52;;;;;;;1.80;0.40;;;22.50;99.90;;;;;;4968802;28;20394;-87
2023/07/21 10:18:19;;;;;;;0.75;0.20;;;22.40;99.90;;;;;;4964609;28;20156;-84
2023/07/21 10:20:50;;;;;;;1.50;0.40;;;23.60;99.90;;;;;;4969984;28;20050;-87
2023/07/21 10:23:22;;;;;;;1.05;0.35;;;22.30;99.90;;;;;;4977868;28;20050;-85
2023/07/21 10:25:51;;;;;;;1.15;0.30;;;22.80;99.90;;;;;;4944885;28;20082;-86
2023/07/21 10:28:30;;;;;;;1.00;0.20;;;23.20;99.90;;;;;;4966761;28;20502;-85
2023/07/21 10:31:21;;;;;;;1.23;0.25;;;23.00;99.90;;;;;;4961827;28;20045;-87
2023/07/21 10:34:05;;;;;;;1.95;0.30;;;22.70;99.90;;;;;;4961191;28;20047;-85
2023/07/21 10:36:53;;;;;;;1.27;0.30;;;22.00;99.90;;;;;;4946431;28;20034;-85
2023/07/21 10:39:24;;;;;;;1.35;0.40;;;21.60;99.90;;;;;;4961966;28;20034;-85
2023/07/21 10:41:58;;;;;;;0.70;0.30;;;21.70;99.90;;;;;;4945314;28;20478;-85
2023/07/21 10:44:30;;;;;;;2.17;0.30;;;22.00;99.90;;;;;;4979508;28;20050;-87
2023/07/21 10:46:56;;;;;;;0.50;0.20;;;22.30;99.90;;;;;;4977070;28;20054;-85
2023/07/21 10:49:22;;;;;;;0.57;0.22;;;22.70;99.90;;;;;;4961951;28;20038;-85
2023/07/21 10:51:49;;;;;;;1.48;0.43;;;22.40;99.90;;;;;;4980250;28;20034;-84
2023/07/21 10:54:16;;;;;;;2.00;0.40;;;21.40;99.90;;;;;;4946769;28;20034;-84
2023/07/21 10:56:45;;;;;;;1.20;0.50;;;21.30;99.90;;;;;;4961602;28;20043;-80
2023/07/21 10:59:11;;;;;;;2.15;0.40;;;20.80;99.90;;;;;;4943153;28;20134;-84
2023/07/21 11:01:56;;;;;;;1.55;0.40;;;20.60;99.90;;;;;;4951438;28;20045;-81
2023/07/21 11:04:23;;;;;;;1.02;0.30;;;20.50;99.90;;;;;;4960412;28;20089;-88
2023/07/21 11:06:54;;;;;;;0.60;0.20;;;20.90;99.90;;;;;;4942754;28;20054;-87
2023/07/21 11:09:21;;;;;;;0.60;0.20;;;21.10;99.90;;;;;;4944563;28;20058;-86
2023/07/21 11:11:49;;;;;;;0.90;0.30;;;21.20;99.90;;;;;;4967282;28;21025;-87
2023/07/21 11:14:18;;;;;;;1.58;0.40;;;20.70;99.90;;;;;;4961941;28;20070;-80
2023/07/21 11:16:57;;;;;;;1.80;0.40;;;20.50;99.90;;;;;;4947299;28;20034;-85
2023/07/21 11:19:25;;;;;;;1.67;0.50;;;20.80;99.90;;;;;;4957885;28;20043;-83
2023/07/21 11:21:51;;;;;;;1.95;0.30;;;20.30;99.90;;;;;;4979646;28;20054;-85
2023/07/21 11:24:25;;;;;;;0.50;0.20;;;20.80;99.90;;;;;;4968001;28;20065;-84
2023/07/21 11:26:58;;;;;;;0.68;0.30;;;20.80;99.90;;;;;;4945581;28;20078;-86
2023/07/21 11:29:26;;;;;;;0.82;0.20;;;20.50;99.90;;;;;;4952478;28;20057;-83
2023/07/21 11:31:52;;;;;;;0.65;0.25;;;20.90;99.90;;;;;;4961801;28;20041;-83
2023/07/21 11:34:23;;;;;;;1.20;0.30;;;20.90;99.90;;;;;;4963784;28;20046;-81
2023/07/21 11:36:58;;;;;;;1.42;0.20;;;21.10;99.90;;;;;;4968863;28;20038;-81
2023/07/21 11:39:24;;;;;;;0.80;0.28;;;21.20;99.90;;;;;;4957641;28;20042;-86
2023/07/21 11:41:53;;;;;;;1.33;0.40;;;21.50;99.90;;;;;;4961172;28;20043;-86
2023/07/21 11:44:26;;;;;;;1.07;0.50;;;22.30;99.90;;;;;;4944208;28;20078;-84
2023/07/21 11:47:10;;;;;;;0.52;0.20;;;22.90;99.90;;;;;;4946916;28;20443;-81
2023/07/21 11:49:41;;;;;;;1.67;0.40;;;23.50;99.90;;;;;;4961719;28;20039;-82
2023/07/21 11:52:08;;;;;;;1.00;0.40;;;23.40;99.90;;;;;;4982540;28;20042;-85
2023/07/21 11:54:44;;;;;;;1.20;0.32;;;23.50;99.90;;;;;;4960926;28;20093;-85
2023/07/21 11:57:11;;;;;;;0.50;0.25;;;24.00;99.90;;;;;;4944179;28;20041;-86
2023/07/21 11:59:37;;;;;;;2.45;0.60;;;24.40;99.90;;;;;;4973500;28;20063;-86
2023/07/21 12:02:05;;;;;;;1.40;0.40;;;23.50;99.90;;;;;;4945044;28;20165;-89
2023/07/21 12:04:32;;;;;;;0.80;0.30;;;24.30;99.90;;;;;;4944278;28;20049;-86
2023/07/21 12:06:59;;;;;;;1.15;0.30;;;24.40;99.90;;;;;;4962585;28;20059;-87
2023/07/21 12:09:25;;;;;;;1.38;0.63;;;25.00;99.90;;;;;;4943478;28;20046;-86
2023/07/21 12:11:53;;;;;;;0.82;0.30;;;23.90;99.90;;;;;;4976871;28;20043;-86
2023/07/21 12:14:19;;;;;;;1.27;0.40;;;23.90;99.90;;;;;;4977127;28;20034;-85
2023/07/21 12:16:45;;;;;;;0.52;0.20;;;23.30;99.90;;;;;;4961719;28;20049;-87
2023/07/21 12:19:12;;;;;;;0.50;0.20;;;24.10;99.90;;;;;;4967093;28;20034;-86
2023/07/21 12:21:37;;;;;;;0.45;0.20;;;23.80;99.90;;;;;;4977373;28;20141;-82
2023/07/21 12:24:03;;;;;;;0.80;0.30;;;23.50;99.90;;;;;;4966581;28;20145;-85
2023/07/21 12:26:29;;;;;;;2.33;0.40;;;23.30;99.90;;;;;;4949992;28;20376;-85
2023/07/21 12:28:55;;;;;;;1.67;0.40;;;23.00;99.90;;;;;;4966000;28;20043;-83
2023/07/21 12:31:21;;;;;;;1.25;0.40;;;23.70;99.90;;;;;;4969328;28;20039;-85
2023/07/21 12:33:48;;;;;;;0.65;0.20;;;23.10;99.90;;;;;;4960065;28;20038;-86
2023/07/21 12:36:14;;;;;;;0.93;0.20;;;23.40;99.90;;;;;;4960189;28;20074;-86
2023/07/21 12:38:41;;;;;;;1.00;0.22;;;23.10;99.90;;;;;;4960938;28;20514;-86
2023/07/21 12:41:07;;;;;;;1.40;0.20;;;23.20;99.90;;;;;;4951125;28;20038;-86
2023/07/21 12:43:33;;;;;;;0.43;0.20;;;23.10;99.90;;;;;;4946575;28;20077;-84
2023/07/21 12:46:00;;;;;;;0.80;0.30;;;23.10;99.90;;;;;;4966409;28;20381;-87
2023/07/21 12:48:26;;;;;;;1.60;0.60;;;22.40;99.90;;;;;;4964742;28;20097;-80
2023/07/21 12:50:52;;;;;;;2.70;1.13;;;21.30;99.90;;;;;;4966445;28;20194;-85
2023/07/21 12:53:18;;;;;;;1.80;1.30;;;20.00;99.90;;;;;;4949375;28;20474;-83
2023/07/21 12:55:45;;;;;;;2.22;0.70;;;19.40;99.90;;;;;;4949946;28;20117;-84
2023/07/21 12:58:11;;;;;;;0.93;0.40;;;19.30;99.90;;;;;;4977424;28;20070;-84